createdAt,value
2023-02-16T00:00:02.443Z,102400
2023-02-16T00:05:00.746Z,102390
2023-02-16T00:10:00.715Z,102400
2023-02-16T00:15:01.124Z,102390
2023-02-16T00:20:00.726Z,102390
2023-02-16T00:25:00.702Z,102390
2023-02-16T00:30:00.988Z,102390
2023-02-16T00:35:00.722Z,102390
2023-02-16T00:40:00.732Z,102390
2023-02-16T00:45:01.262Z,102390
2023-02-16T00:50:00.710Z,102380
2023-02-16T00:55:07.501Z,102380
2023-02-16T01:00:12.068Z,102380
2023-02-16T01:05:00.829Z,102380
2023-02-16T01:10:00.740Z,102370
2023-02-16T01:15:00.820Z,102370
2023-02-16T01:20:00.724Z,102370
2023-02-16T01:25:00.724Z,102360
2023-02-16T01:30:00.825Z,102350
2023-02-16T01:35:00.741Z,102350
2023-02-16T01:40:00.858Z,102350
2023-02-16T01:45:08.139Z,102340
2023-02-16T01:50:15.728Z,102340
2023-02-16T01:55:08.830Z,102340
2023-02-16T02:00:08.679Z,102330
2023-02-16T02:05:18.172Z,102330
2023-02-16T02:10:07.403Z,102330
2023-02-16T02:15:00.772Z,102330
2023-02-16T02:20:10.712Z,102320
2023-02-16T02:25:20.616Z,102320
2023-02-16T02:30:13.949Z,102310
2023-02-16T02:35:18.425Z,102310
2023-02-16T02:40:06.850Z,102310
2023-02-16T02:45:08.777Z,102300
2023-02-16T02:50:00.743Z,102300
2023-02-16T02:55:00.835Z,102290
2023-02-16T03:00:06.544Z,102300
2023-02-16T03:05:04.580Z,102300
2023-02-16T03:10:00.742Z,102290
2023-02-16T03:15:01.712Z,102280
2023-02-16T03:20:05.446Z,102280
2023-02-16T03:25:00.753Z,102280
2023-02-16T03:30:03.578Z,102270
2023-02-16T03:35:00.830Z,102260
2023-02-16T03:40:01.115Z,102260
2023-02-16T03:45:00.881Z,102260
2023-02-16T03:50:00.702Z,102260
2023-02-16T03:55:00.754Z,102270
2023-02-16T04:00:01.337Z,102280
2023-02-16T04:05:00.773Z,102290
2023-02-16T04:10:00.824Z,102290
2023-02-16T04:15:01.155Z,102290
2023-02-16T04:20:00.813Z,102290
2023-02-16T04:25:00.796Z,102280
2023-02-16T04:30:01.166Z,102280
2023-02-16T04:35:00.828Z,102280
2023-02-16T04:40:01.529Z,102280
2023-02-16T04:45:00.744Z,102280
2023-02-16T04:50:00.780Z,102270
2023-02-16T04:55:00.775Z,102270
2023-02-16T05:00:03.127Z,102270
2023-02-16T05:05:00.726Z,102280
2023-02-16T05:10:00.753Z,102270
2023-02-16T05:15:00.823Z,102270
2023-02-16T05:20:00.782Z,102270
2023-02-16T05:25:01.015Z,102260
2023-02-16T05:30:00.811Z,102250
2023-02-16T05:35:00.725Z,102250
2023-02-16T05:40:00.751Z,102270
2023-02-16T05:45:00.716Z,102240
2023-02-16T05:50:01.016Z,102260
2023-02-16T05:55:00.810Z,102260
2023-02-16T06:00:04.159Z,102260
2023-02-16T06:05:00.742Z,102260
2023-02-16T06:10:00.795Z,102240
2023-02-16T06:15:01.005Z,102250
2023-02-16T06:20:00.907Z,102240
2023-02-16T06:25:00.756Z,102250
2023-02-16T06:30:00.789Z,102260
2023-02-16T06:35:00.763Z,102260
2023-02-16T06:40:00.734Z,102260
2023-02-16T06:45:01.156Z,102270
2023-02-16T06:50:01.053Z,102260
2023-02-16T06:55:01.002Z,102260
2023-02-16T07:00:01.989Z,102260
2023-02-16T07:05:00.955Z,102260
2023-02-16T07:10:00.770Z,102270
2023-02-16T07:15:00.819Z,102270
2023-02-16T07:20:00.751Z,102280
2023-02-16T07:25:00.732Z,102270
2023-02-16T07:30:00.992Z,102280
2023-02-16T07:35:00.817Z,102280
2023-02-16T07:40:00.789Z,102280
2023-02-16T07:45:00.785Z,102290
2023-02-16T07:50:00.781Z,102290
2023-02-16T07:55:01.516Z,102300
2023-02-16T08:00:01.535Z,102290
2023-02-16T08:05:01.375Z,102300
2023-02-16T08:10:00.744Z,102310
2023-02-16T08:15:00.777Z,102320
2023-02-16T08:20:01.353Z,102320
2023-02-16T08:25:00.729Z,102310
2023-02-16T08:30:00.792Z,102310
2023-02-16T08:35:00.726Z,102310
2023-02-16T08:40:00.875Z,102320
2023-02-16T08:45:00.733Z,102320
2023-02-16T08:50:00.805Z,102320
2023-02-16T08:55:00.734Z,102330
2023-02-16T09:00:01.214Z,102340
2023-02-16T09:05:00.727Z,102340
2023-02-16T09:10:01.895Z,102340
2023-02-16T09:15:00.697Z,102340
2023-02-16T09:20:00.769Z,102330
2023-02-16T09:25:00.724Z,102340
2023-02-16T09:30:00.822Z,102330
2023-02-16T09:35:00.698Z,102330
2023-02-16T09:40:00.724Z,102340
2023-02-16T09:45:09.593Z,102340
2023-02-16T09:50:05.124Z,102340
2023-02-16T09:55:04.474Z,102330
2023-02-16T10:00:05.514Z,102340
2023-02-16T10:05:10.650Z,102340
2023-02-16T10:10:02.204Z,102340
2023-02-16T10:15:07.523Z,102340
2023-02-16T10:20:18.005Z,102340
2023-02-16T10:25:04.794Z,102330
2023-02-16T10:30:00.766Z,102340
2023-02-16T10:35:13.624Z,102330
2023-02-16T10:40:11.669Z,102340
2023-02-16T10:45:13.920Z,102340
2023-02-16T10:50:01.359Z,102340
2023-02-16T10:55:01.136Z,102340
2023-02-16T11:00:06.413Z,102340
2023-02-16T11:05:01.103Z,102320
2023-02-16T11:10:20.624Z,102320
2023-02-16T11:15:07.610Z,102320
2023-02-16T11:20:05.126Z,102310
2023-02-16T11:25:18.179Z,102320
2023-02-16T11:30:14.896Z,102310
2023-02-16T11:35:00.914Z,102300
2023-02-16T11:40:06.883Z,102300
2023-02-16T11:45:02.916Z,102290
2023-02-16T11:50:20.609Z,102290
2023-02-16T11:55:01.127Z,102280
2023-02-16T12:00:13.055Z,102280
2023-02-16T12:05:11.692Z,102280
2023-02-16T12:10:14.741Z,102270
2023-02-16T12:15:13.586Z,102270
2023-02-16T12:20:20.615Z,102260
2023-02-16T12:25:15.042Z,102250
2023-02-16T12:30:10.736Z,102250
2023-02-16T12:35:12.533Z,102240
2023-02-16T12:40:15.741Z,102230
2023-02-16T12:45:08.033Z,102210
2023-02-16T12:50:06.420Z,102210
2023-02-16T12:55:15.380Z,102200
2023-02-16T13:00:11.033Z,102200
2023-02-16T13:05:05.151Z,102200
2023-02-16T13:10:20.611Z,102180
2023-02-16T13:15:10.666Z,102180
2023-02-16T13:20:02.681Z,102170
2023-02-16T13:25:13.964Z,102170
2023-02-16T13:30:13.971Z,102170
2023-02-16T13:35:11.715Z,102160
2023-02-16T13:40:13.752Z,102150
2023-02-16T13:45:03.926Z,102150
2023-02-16T13:50:05.802Z,102140
2023-02-16T13:55:04.496Z,102120
2023-02-16T14:00:03.169Z,102120
2023-02-16T14:05:03.401Z,102100
2023-02-16T14:10:00.749Z,102100
2023-02-16T14:15:04.310Z,102110
2023-02-16T14:20:04.014Z,102100
2023-02-16T14:25:04.209Z,102100
2023-02-16T14:30:03.618Z,102100
2023-02-16T14:35:07.046Z,102090
2023-02-16T14:40:13.690Z,102080
2023-02-16T14:45:20.629Z,102080
2023-02-16T14:50:18.190Z,102080
2023-02-16T14:55:08.364Z,102070
2023-02-16T15:00:10.375Z,102070
2023-02-16T15:05:20.647Z,102080
2023-02-16T15:10:03.146Z,102080
2023-02-16T15:15:03.935Z,102070
2023-02-16T15:20:08.287Z,102080
2023-02-16T15:25:06.374Z,102080
2023-02-16T15:30:02.072Z,102070
2023-02-16T15:35:10.526Z,102070
2023-02-16T15:40:25.011Z,102070
2023-02-16T15:45:00.805Z,102070
2023-02-16T15:50:11.543Z,102070
2023-02-16T15:55:04.398Z,102070
2023-02-16T16:00:07.269Z,102080
2023-02-16T16:05:06.287Z,102070
2023-02-16T16:10:09.524Z,102070
2023-02-16T16:15:01.472Z,102070
2023-02-16T16:20:20.626Z,102070
2023-02-16T16:25:01.657Z,102070
2023-02-16T16:30:10.706Z,102070
2023-02-16T16:35:00.743Z,102060
2023-02-16T16:40:05.458Z,102050
2023-02-16T16:45:06.207Z,102060
2023-02-16T16:50:05.458Z,102060
2023-02-16T16:55:01.003Z,102070
2023-02-16T17:00:01.407Z,102050
2023-02-16T17:05:00.735Z,102050
2023-02-16T17:10:00.930Z,102040
2023-02-16T17:15:01.768Z,102040
2023-02-16T17:20:00.712Z,102030
2023-02-16T17:25:00.731Z,102030
2023-02-16T17:30:00.805Z,102020
2023-02-16T17:35:00.758Z,102020
2023-02-16T17:40:02.853Z,102020
2023-02-16T17:45:00.712Z,102010
2023-02-16T17:50:00.840Z,102020
2023-02-16T17:55:00.936Z,102010
2023-02-16T18:00:03.532Z,102010
2023-02-16T18:05:00.840Z,102010
2023-02-16T18:10:01.039Z,102010
2023-02-16T18:15:00.741Z,102000
2023-02-16T18:20:00.750Z,102000
2023-02-16T18:25:00.750Z,102000
2023-02-16T18:30:01.071Z,102000
2023-02-16T18:35:00.796Z,102000
2023-02-16T18:40:00.848Z,102000
2023-02-16T18:45:00.893Z,102000
2023-02-16T18:50:01.250Z,102010
2023-02-16T18:55:00.738Z,102000
2023-02-16T19:00:05.579Z,102000
2023-02-16T19:05:00.974Z,102000
2023-02-16T19:10:01.121Z,102010
2023-02-16T19:15:00.784Z,102010
2023-02-16T19:20:00.876Z,102020
2023-02-16T19:25:00.722Z,102020
2023-02-16T19:30:01.091Z,102020
2023-02-16T19:35:00.830Z,102010
2023-02-16T19:40:00.816Z,102020
2023-02-16T19:45:00.760Z,102010
2023-02-16T19:50:00.867Z,102010
2023-02-16T19:55:00.729Z,102010
2023-02-16T20:00:03.069Z,102010
2023-02-16T20:05:00.710Z,102000
2023-02-16T20:10:00.845Z,101990
2023-02-16T20:15:00.918Z,102000
2023-02-16T20:20:00.782Z,101990
2023-02-16T20:25:00.731Z,101980
2023-02-16T20:30:03.297Z,101990
2023-02-16T20:35:02.147Z,101980
2023-02-16T20:40:00.775Z,101980
2023-02-16T20:45:00.835Z,101990
2023-02-16T20:50:00.724Z,102000
2023-02-16T20:55:00.815Z,101980
2023-02-16T21:00:05.561Z,101990
2023-02-16T21:05:00.703Z,101980
2023-02-16T21:10:00.881Z,101990
2023-02-16T21:15:00.954Z,101990
2023-02-16T21:20:00.854Z,101990
2023-02-16T21:25:00.842Z,101990
2023-02-16T21:30:01.082Z,101980
2023-02-16T21:35:00.779Z,101970
2023-02-16T21:40:00.708Z,101970
2023-02-16T21:45:00.888Z,101970
2023-02-16T21:50:00.743Z,101970
2023-02-16T21:55:00.719Z,101960
2023-02-16T22:00:03.912Z,101940
2023-02-16T22:05:00.719Z,101940
2023-02-16T22:10:00.748Z,101950
2023-02-16T22:15:00.770Z,101940
2023-02-16T22:20:00.773Z,101930
2023-02-16T22:25:00.811Z,101930
2023-02-16T22:30:00.858Z,101940
2023-02-16T22:35:00.810Z,101950
2023-02-16T22:40:00.862Z,101950
2023-02-16T22:45:01.219Z,101950
2023-02-16T22:50:00.798Z,101950
2023-02-16T22:55:00.825Z,101950
2023-02-16T23:00:03.427Z,101960
2023-02-16T23:05:00.742Z,101960
2023-02-16T23:10:01.093Z,101960
2023-02-16T23:15:00.763Z,101960
2023-02-16T23:20:01.031Z,101960
2023-02-16T23:25:01.365Z,101950
2023-02-16T23:30:00.819Z,101940
2023-02-16T23:35:00.712Z,101950
2023-02-16T23:40:00.935Z,101950
2023-02-16T23:45:00.705Z,101940
2023-02-16T23:50:00.752Z,101940
2023-02-16T23:55:00.743Z,101940
